Time,TemperatureF,DewpointF,PressureIn,WindDirection,WindDirectionDegrees,WindSpeedMPH,WindSpeedGustMPH,Humidity,HourlyPrecipIn,Conditions,Clouds,dailyrainin,SolarRadiationWatts/m^2,SoftwareType,DateUTC
2013-09-07 00:04:00,51.0,37.0,-100.00,SSE,154,1.0,5.0,59,0.00,,,0.00,0.000000,,2013-09-07 04:04:00,
2013-09-07 00:43:00,53.0,38.0,-100.00,SSW,198,3.0,5.0,56,0.00,,,0.00,0.000000,,2013-09-07 04:43:00,
2013-09-07 00:54:00,53.0,38.0,-100.00,SSW,198,3.0,5.0,56,0.00,,,0.00,0.000000,,2013-09-07 04:54:00,
2013-09-07 01:03:00,53.0,38.0,-100.00,SSW,198,3.0,5.0,56,0.00,,,0.00,0.000000,,2013-09-07 05:03:00,
2013-09-07 01:42:00,53.0,39.0,-100.00,SSW,198,5.0,7.0,58,0.00,,,0.00,0.000000,,2013-09-07 05:42:00,
2013-09-07 01:52:00,53.0,39.0,-100.00,SSW,198,5.0,7.0,58,0.00,,,0.00,0.000000,,2013-09-07 05:52:00,
2013-09-07 02:02:00,53.0,39.0,-100.00,SSW,198,5.0,7.0,58,0.00,,,0.00,0.000000,,2013-09-07 06:02:00,
2013-09-07 10:43:00,64.0,48.0,-100.00,WSW,254,3.0,6.0,56,0.00,,,0.00,490.000000,,2013-09-07 14:43:00,
2013-09-07 10:52:00,64.0,48.0,-100.00,WSW,254,3.0,6.0,56,0.00,,,0.00,490.000000,,2013-09-07 14:52:00,
2013-09-07 11:02:00,64.0,48.0,-100.00,WSW,254,3.0,6.0,56,0.00,,,0.00,490.000000,,2013-09-07 15:02:00,
2013-09-07 11:44:00,66.0,49.0,-100.00,WSW,242,3.0,7.0,54,0.00,,,0.00,631.000000,,2013-09-07 15:44:00,
2013-09-07 11:54:00,66.0,49.0,-100.00,WSW,242,3.0,7.0,54,0.00,,,0.00,631.000000,,2013-09-07 15:54:00,
2013-09-07 12:04:00,66.0,49.0,-100.00,WSW,242,3.0,7.0,54,0.00,,,0.00,631.000000,,2013-09-07 16:04:00,
2013-09-07 12:43:00,69.0,52.0,-100.00,SSW,208,5.0,10.0,54,0.00,,,0.00,718.000000,,2013-09-07 16:43:00,
2013-09-07 12:53:00,69.0,52.0,-100.00,SSW,208,5.0,10.0,54,0.00,,,0.00,718.000000,,2013-09-07 16:53:00,
2013-09-07 13:04:00,69.0,52.0,-100.00,SSW,208,5.0,10.0,54,0.00,,,0.00,718.000000,,2013-09-07 17:04:00,
2013-09-07 13:43:00,71.0,51.0,-100.00,SW,218,5.0,10.0,49,0.00,,,0.00,706.000000,,2013-09-07 17:43:00,
2013-09-07 13:52:00,71.0,51.0,-100.00,SW,218,5.0,10.0,49,0.00,,,0.00,706.000000,,2013-09-07 17:52:00,
2013-09-07 14:01:00,71.0,51.0,-100.00,SW,218,5.0,10.0,49,0.00,,,0.00,706.000000,,2013-09-07 18:01:00,
2013-09-07 14:43:00,73.0,52.0,-100.00,SSW,195,5.0,10.0,48,0.00,,,0.00,727.000000,,2013-09-07 18:43:00,
2013-09-07 14:52:00,73.0,52.0,-100.00,SSW,195,5.0,10.0,48,0.00,,,0.00,727.000000,,2013-09-07 18:52:00,
2013-09-07 15:02:00,73.0,52.0,-100.00,SSW,195,5.0,10.0,48,0.00,,,0.00,727.000000,,2013-09-07 19:02:00,
2013-09-07 15:42:00,73.0,51.0,-100.00,SW,223,5.0,10.0,46,0.00,,,0.00,557.000000,,2013-09-07 19:42:00,
2013-09-07 15:53:00,73.0,51.0,-100.00,SW,223,5.0,10.0,46,0.00,,,0.00,557.000000,,2013-09-07 19:53:00,
2013-09-07 16:02:00,73.0,51.0,-100.00,SW,223,5.0,10.0,46,0.00,,,0.00,557.000000,,2013-09-07 20:02:00,
2013-09-07 16:42:00,73.0,50.0,-100.00,SW,215,6.0,9.0,45,0.00,,,0.00,546.000000,,2013-09-07 20:42:00,
2013-09-07 16:53:00,73.0,50.0,-100.00,SW,215,6.0,9.0,45,0.00,,,0.00,546.000000,,2013-09-07 20:53:00,
2013-09-07 17:02:00,73.0,50.0,-100.00,SW,215,6.0,9.0,45,0.00,,,0.00,546.000000,,2013-09-07 21:02:00,
2013-09-07 17:44:00,69.0,51.0,-100.00,SSW,199,5.0,9.0,53,0.00,,,0.00,192.000000,,2013-09-07 21:44:00,
2013-09-07 17:54:00,69.0,51.0,-100.00,SSW,199,5.0,9.0,53,0.00,,,0.00,192.000000,,2013-09-07 21:54:00,
2013-09-07 18:04:00,69.0,51.0,-100.00,SSW,199,5.0,9.0,53,0.00,,,0.00,192.000000,,2013-09-07 22:04:00,
2013-09-07 18:43:00,70.0,53.0,-100.00,SSW,213,5.0,8.0,54,0.00,,,0.00,181.000000,,2013-09-07 22:43:00,
2013-09-07 18:53:00,70.0,53.0,-100.00,SSW,213,5.0,8.0,54,0.00,,,0.00,181.000000,,2013-09-07 22:53:00,
2013-09-07 19:03:00,70.0,53.0,-100.00,SSW,213,5.0,8.0,54,0.00,,,0.00,181.000000,,2013-09-07 23:03:00,
2013-09-07 19:42:00,65.0,53.0,-100.00,South,175,3.0,6.0,66,0.00,,,0.00,47.000000,,2013-09-07 23:42:00,
2013-09-07 19:53:00,65.0,53.0,-100.00,South,175,3.0,6.0,66,0.00,,,0.00,47.000000,,2013-09-07 23:53:00,
2013-09-07 20:02:00,65.0,53.0,-100.00,South,175,3.0,6.0,66,0.00,,,0.00,47.000000,,2013-09-08 00:02:00,
2013-09-07 20:43:00,65.0,55.0,-100.00,SSW,203,5.0,7.0,69,0.00,,,0.00,4.000000,,2013-09-08 00:43:00,
2013-09-07 20:52:00,65.0,55.0,-100.00,SSW,203,5.0,7.0,69,0.00,,,0.00,4.000000,,2013-09-08 00:52:00,
2013-09-07 21:01:00,65.0,55.0,-100.00,SSW,203,5.0,7.0,69,0.00,,,0.00,4.000000,,2013-09-08 01:01:00,
2013-09-07 21:42:00,66.0,53.0,-100.00,SSW,211,7.0,9.0,63,0.00,,,0.00,0.000000,,2013-09-08 01:42:00,
2013-09-07 21:52:00,66.0,53.0,-100.00,SSW,211,7.0,9.0,63,0.00,,,0.00,0.000000,,2013-09-08 01:52:00,
2013-09-07 22:02:00,66.0,53.0,-100.00,SSW,211,7.0,9.0,63,0.00,,,0.00,0.000000,,2013-09-08 02:02:00,
2013-09-07 22:43:00,64.0,48.0,-100.00,South,191,2.0,10.0,57,0.00,,,0.00,0.000000,,2013-09-08 02:43:00,
2013-09-07 22:52:00,64.0,48.0,-100.00,South,191,2.0,10.0,57,0.00,,,0.00,0.000000,,2013-09-08 02:52:00,
2013-09-07 23:03:00,64.0,48.0,-100.00,South,191,2.0,10.0,57,0.00,,,0.00,0.000000,,2013-09-08 03:03:00,
2013-09-07 23:44:00,63.0,55.0,-100.00,NE,37,3.0,4.0,75,0.00,,,0.00,0.000000,,2013-09-08 03:44:00,
2013-09-07 23:54:00,63.0,55.0,-100.00,NE,37,3.0,4.0,75,0.00,,,0.00,0.000000,,2013-09-08 03:54:00,